Time;durP1;ratioP1;P1;durP2;ratioP2;P2;SDS_P1;SDS_P2;PMS_P1;PMS_P2;Temp;Humidity;BMP_temperature;BMP_pressure;BME280_temperature;BME280_humidity;BME280_pressure;Samples;Min_cycle;Max_cycle;Signal;HPM_P1;HPM_P2
2022/04/01 00:00:08;;;;;;;23.15;20.85;;;;;;;;;;511186;28;1355;-84
2022/04/01 00:00:23;;;;;;;23.08;20.77;;;;;;;;;;511590;28;1479;-86
2022/04/01 00:00:39;;;;;;;22.93;20.63;;;;;;;;;;512803;28;1782;-85
2022/04/01 00:00:55;;;;;;;21.80;19.63;;;;;;;;;;512721;28;1400;-84
2022/04/01 00:01:10;;;;;;;20.95;18.80;;;;;;;;;;509458;29;1437;-84
2022/04/01 00:01:26;;;;;;;19.83;17.85;;;;;;;;;;509212;29;1730;-84
2022/04/01 00:01:42;;;;;;;19.90;18.00;;;;;;;;;;510388;28;1676;-85
2022/04/01 00:01:58;;;;;;;20.67;18.58;;;;;;;;;;511185;28;1575;-84
2022/04/01 00:02:13;;;;;;;20.67;18.60;;;;;;;;;;510702;28;1672;-84
2022/04/01 00:02:29;;;;;;;20.10;18.20;;;;;;;;;;511422;28;1469;-84
2022/04/01 00:02:44;;;;;;;19.92;18.02;;;;;;;;;;509737;29;1451;-85
2022/04/01 00:03:00;;;;;;;21.15;19.13;;;;;;;;;;511831;28;1850;-84
2022/04/01 00:03:16;;;;;;;22.33;20.20;;;;;;;;;;509126;29;1446;-84
2022/04/01 00:03:31;;;;;;;22.45;20.17;;;;;;;;;;507567;29;1509;-84
2022/04/01 00:03:47;;;;;;;22.03;19.83;;;;;;;;;;505754;29;1569;-84
2022/04/01 00:04:02;;;;;;;21.73;19.63;;;;;;;;;;507225;29;1504;-84
2022/04/01 00:04:18;;;;;;;21.53;19.43;;;;;;;;;;506956;29;1541;-85
2022/04/01 00:04:33;;;;;;;21.70;19.57;;;;;;;;;;507369;29;1577;-84
2022/04/01 00:04:49;;;;;;;21.83;19.63;;;;;;;;;;507993;29;1451;-84
2022/04/01 00:05:06;;;;;;;22.25;20.05;;;;;;;;;;509756;29;1330;-84
2022/04/01 00:05:21;;;;;;;23.67;21.33;;;;;;;;;;509685;29;1558;-84
2022/04/01 00:05:40;;;;;;;23.75;21.35;;;;;;;;;;511742;28;1434;-85
2022/04/01 00:05:56;;;;;;;23.35;20.98;;;;;;;;;;511208;28;1485;-84
2022/04/01 00:06:11;;;;;;;23.67;21.37;;;;;;;;;;509475;29;1508;-84
2022/04/01 00:06:28;;;;;;;24.23;21.93;;;;;;;;;;509203;29;1514;-84
2022/04/01 00:06:43;;;;;;;24.90;22.50;;;;;;;;;;509181;29;1696;-85
2022/04/01 00:06:58;;;;;;;24.90;22.50;;;;;;;;;;510527;28;1560;-84
2022/04/01 00:07:14;;;;;;;24.17;21.77;;;;;;;;;;508893;29;1603;-84
2022/04/01 00:07:30;;;;;;;23.30;21.00;;;;;;;;;;507991;29;1405;-85
2022/04/01 00:07:45;;;;;;;23.10;20.80;;;;;;;;;;506940;29;1476;-84
2022/04/01 00:08:02;;;;;;;22.55;20.15;;;;;;;;;;509594;29;1517;-85
2022/04/01 00:08:17;;;;;;;22.23;20.00;;;;;;;;;;509798;28;1505;-84
2022/04/01 00:08:33;;;;;;;22.15;19.95;;;;;;;;;;510951;28;1521;-84
2022/04/01 00:08:48;;;;;;;21.93;19.63;;;;;;;;;;509218;29;1537;-84
2022/04/01 00:09:04;;;;;;;21.63;19.42;;;;;;;;;;507215;29;1726;-84
2022/04/01 00:09:19;;;;;;;21.80;19.77;;;;;;;;;;509801;29;1387;-84
2022/04/01 00:09:35;;;;;;;23.05;20.83;;;;;;;;;;509424;29;1458;-84
2022/04/01 00:09:50;;;;;;;23.50;21.20;;;;;;;;;;507318;29;1540;-84
2022/04/01 00:10:07;;;;;;;22.63;20.42;;;;;;;;;;507713;28;1541;-86
2022/04/01 00:10:23;;;;;;;21.13;19.13;;;;;;;;;;508160;29;1359;-85
2022/04/01 00:10:38;;;;;;;19.90;18.00;;;;;;;;;;510291;28;1586;-84
2022/04/01 00:10:54;;;;;;;20.13;18.15;;;;;;;;;;509918;29;1628;-84
2022/04/01 00:11:09;;;;;;;20.67;18.67;;;;;;;;;;509111;29;1693;-84
2022/04/01 00:11:25;;;;;;;20.37;18.47;;;;;;;;;;507724;29;1513;-84
2022/04/01 00:11:40;;;;;;;20.27;18.23;;;;;;;;;;507305;29;1466;-84
2022/04/01 00:11:55;;;;;;;20.23;18.17;;;;;;;;;;505080;29;1423;-85
2022/04/01 00:12:11;;;;;;;20.33;18.43;;;;;;;;;;505485;29;1775;-84
2022/04/01 00:12:26;;;;;;;20.60;18.60;;;;;;;;;;505398;29;1445;-85
2022/04/01 00:12:44;;;;;;;20.53;18.43;;;;;;;;;;507343;29;1580;-84
2022/04/01 00:13:00;;;;;;;21.23;19.02;;;;;;;;;;506874;29;1416;-84
2022/04/01 00:13:15;;;;;;;21.00;18.85;;;;;;;;;;507239;29;1959;-85
2022/04/01 00:13:31;;;;;;;20.87;18.87;;;;;;;;;;507655;29;1537;-83
2022/04/01 00:13:46;;;;;;;21.05;19.10;;;;;;;;;;508982;29;1455;-84
2022/04/01 00:14:02;;;;;;;21.07;19.07;;;;;;;;;;510212;28;1513;-84
2022/04/01 00:14:17;;;;;;;21.13;19.05;;;;;;;;;;509073;28;1595;-84
2022/04/01 00:14:33;;;;;;;21.20;19.10;;;;;;;;;;508985;29;1493;-85
2022/04/01 00:14:48;;;;;;;21.15;19.05;;;;;;;;;;507374;29;1453;-86
2022/04/01 00:15:04;;;;;;;21.73;19.53;;;;;;;;;;507502;29;1439;-84
2022/04/01 00:15:21;;;;;;;21.85;19.65;;;;;;;;;;508907;29;1517;-84
2022/04/01 00:15:37;;;;;;;21.08;19.08;;;;;;;;;;509632;29;1688;-85
2022/04/01 00:15:52;;;;;;;21.73;19.60;;;;;;;;;;509809;29;1642;-84
2022/04/01 00:16:08;;;;;;;22.27;19.97;;;;;;;;;;509647;28;1378;-85
2022/04/01 00:16:23;;;;;;;21.90;19.70;;;;;;;;;;511458;28;1775;-84
2022/04/01 00:16:39;;;;;;;22.70;20.33;;;;;;;;;;512721;28;1662;-84
2022/04/01 00:16:54;;;;;;;23.67;21.17;;;;;;;;;;511361;28;1654;-84
2022/04/01 00:17:10;;;;;;;23.10;20.73;;;;;;;;;;510307;28;1449;-85
2022/04/01 00:17:25;;;;;;;22.73;20.35;;;;;;;;;;512933;28;1342;-84
2022/04/01 00:17:41;;;;;;;22.50;20.30;;;;;;;;;;513500;28;1343;-84
2022/04/01 00:17:57;;;;;;;21.92;19.83;;;;;;;;;;513222;28;1476;-83
2022/04/01 00:18:12;;;;;;;21.77;19.67;;;;;;;;;;512829;28;1537;-84
2022/04/01 00:18:29;;;;;;;21.80;19.70;;;;;;;;;;513170;28;1472;-85
2022/04/01 00:18:44;;;;;;;22.48;20.27;;;;;;;;;;510438;28;1472;-85
2022/04/01 00:18:59;;;;;;;22.33;20.20;;;;;;;;;;511064;28;1560;-84
2022/04/01 00:19:15;;;;;;;21.50;19.50;;;;;;;;;;510404;28;1566;-84
2022/04/01 00:19:30;;;;;;;21.20;19.20;;;;;;;;;;509738;29;1478;-85
2022/04/01 00:19:46;;;;;;;21.30;19.15;;;;;;;;;;506443;29;1545;-84
2022/04/01 00:20:02;;;;;;;22.23;19.83;;;;;;;;;;506717;29;1384;-84
2022/04/01 00:20:18;;;;;;;21.67;19.52;;;;;;;;;;506996;29;1534;-85
2022/04/01 00:20:33;;;;;;;21.37;19.30;;;;;;;;;;509250;29;1448;-85
2022/04/01 00:20:49;;;;;;;21.73;19.63;;;;;;;;;;509006;29;1847;-84
2022/04/01 00:21:04;;;;;;;22.13;19.87;;;;;;;;;;508919;29;1505;-86
2022/04/01 00:21:19;;;;;;;22.15;19.85;;;;;;;;;;509054;29;1878;-84
2022/04/01 00:21:35;;;;;;;22.37;20.17;;;;;;;;;;511555;28;1389;-84
2022/04/01 00:21:51;;;;;;;22.80;20.50;;;;;;;;;;513861;28;1446;-84
2022/04/01 00:22:06;;;;;;;22.60;20.20;;;;;;;;;;513088;28;1537;-84
2022/04/01 00:22:22;;;;;;;22.30;20.00;;;;;;;;;;513205;28;1690;-85
2022/04/01 00:22:37;;;;;;;21.98;19.77;;;;;;;;;;515058;28;1644;-86
2022/04/01 00:22:53;;;;;;;22.23;20.03;;;;;;;;;;513534;28;1533;-85
2022/04/01 00:23:09;;;;;;;23.20;20.88;;;;;;;;;;513132;28;1559;-84
2022/04/01 00:23:25;;;;;;;24.25;21.75;;;;;;;;;;510926;28;1440;-84
2022/04/01 00:23:40;;;;;;;23.90;21.53;;;;;;;;;;510732;28;1643;-84
2022/04/01 00:23:55;;;;;;;23.45;21.05;;;;;;;;;;509173;28;1410;-86
2022/04/01 00:24:11;;;;;;;23.97;21.17;;;;;;;;;;510538;28;1576;-84
2022/04/01 00:24:26;;;;;;;23.50;21.00;;;;;;;;;;508934;29;1518;-84
2022/04/01 00:24:42;;;;;;;23.43;21.07;;;;;;;;;;509470;28;1564;-85
2022/04/01 00:24:58;;;;;;;23.50;21.10;;;;;;;;;;510894;28;1462;-84
2022/04/01 00:25:14;;;;;;;23.33;21.00;;;;;;;;;;511184;28;1686;-84
2022/04/01 00:25:30;;;;;;;22.85;20.55;;;;;;;;;;512985;28;1432;-84
2022/04/01 00:25:45;;;;;;;22.73;20.42;;;;;;;;;;513920;28;1527;-84
2022/04/01 00:26:01;;;;;;;22.90;20.50;;;;;;;;;;512857;28;1421;-84
2022/04/01 00:26:17;;;;;;;22.85;20.55;;;;;;;;;;513216;28;1497;-84
2022/04/01 00:26:32;;;;;;;22.70;20.43;;;;;;;;;;512692;28;1465;-84
2022/04/01 00:26:47;;;;;;;22.45;20.15;;;;;;;;;;512349;28;1654;-84
2022/04/01 00:27:03;;;;;;;21.90;19.63;;;;;;;;;;513035;28;1457;-84
2022/04/01 00:27:19;;;;;;;21.92;19.75;;;;;;;;;;512384;28;1369;-84
2022/04/01 00:27:34;;;;;;;23.02;20.73;;;;;;;;;;511235;28;1673;-85
2022/04/01 00:27:50;;;;;;;22.47;20.17;;;;;;;;;;510101;28;1564;-83
2022/04/01 00:28:06;;;;;;;22.45;20.10;;;;;;;;;;511281;28;1545;-84
2022/04/01 00:28:21;;;;;;;22.48;20.08;;;;;;;;;;512797;28;1649;-84
2022/04/01 00:28:38;;;;;;;22.20;19.90;;;;;;;;;;513147;28;1488;-83
2022/04/01 00:28:53;;;;;;;22.92;20.50;;;;;;;;;;511896;28;1449;-84
2022/04/01 00:29:17;;;;;;;23.30;20.80;;;;;;;;;;509237;29;1371;-84
2022/04/01 00:29:33;;;;;;;23.13;20.77;;;;;;;;;;508801;29;1479;-85
2022/04/01 00:29:49;;;;;;;23.37;20.97;;;;;;;;;;509211;29;1359;-85
2022/04/01 00:30:06;;;;;;;23.35;20.92;;;;;;;;;;506439;29;1487;-84
2022/04/01 00:30:22;;;;;;;23.15;20.60;;;;;;;;;;507055;29;1461;-85
2022/04/01 00:30:39;;;;;;;23.15;20.65;;;;;;;;;;504956;29;1471;-84
2022/04/01 00:30:55;;;;;;;22.55;20.25;;;;;;;;;;505240;29;1438;-85
2022/04/01 00:31:10;;;;;;;23.02;20.63;;;;;;;;;;507775;29;1441;-84
2022/04/01 00:31:25;;;;;;;23.40;21.00;;;;;;;;;;506654;29;1387;-84
2022/04/01 00:31:49;;;;;;;23.52;21.05;;;;;;;;;;506047;29;1565;-85
2022/04/01 00:32:05;;;;;;;23.77;21.27;;;;;;;;;;509072;29;1378;-86
2022/04/01 00:32:21;;;;;;;23.40;20.90;;;;;;;;;;508982;29;1681;-83
2022/04/01 00:32:37;;;;;;;23.40;20.90;;;;;;;;;;508741;29;1408;-86
2022/04/01 00:32:52;;;;;;;23.17;20.67;;;;;;;;;;507152;29;1537;-84
2022/04/01 00:33:08;;;;;;;23.25;20.80;;;;;;;;;;506997;29;1475;-84
2022/04/01 00:33:23;;;;;;;23.07;20.57;;;;;;;;;;508991;29;1426;-84
2022/04/01 00:33:39;;;;;;;22.42;20.02;;;;;;;;;;508718;29;1430;-85
2022/04/01 00:34:15;;;;;;;23.55;21.00;;;;;;;;;;509853;28;1419;-84
2022/04/01 00:34:33;;;;;;;25.05;22.30;;;;;;;;;;511736;28;1514;-84
2022/04/01 00:34:49;;;;;;;25.70;22.70;;;;;;;;;;512892;28;1586;-85
2022/04/01 00:35:05;;;;;;;24.92;22.13;;;;;;;;;;513308;28;1459;-84
2022/04/01 00:35:21;;;;;;;24.75;22.15;;;;;;;;;;511013;28;1516;-84
2022/04/01 00:35:36;;;;;;;25.10;22.30;;;;;;;;;;510968;28;1495;-85
2022/04/01 00:35:53;;;;;;;25.92;22.17;;;;;;;;;;512475;28;1530;-84
2022/04/01 00:36:08;;;;;;;25.65;22.83;;;;;;;;;;513380;28;1596;-84
2022/04/01 00:36:24;;;;;;;26.42;23.55;;;;;;;;;;511566;28;1359;-84
2022/04/01 00:36:40;;;;;;;26.52;23.52;;;;;;;;;;512202;28;1980;-83
2022/04/01 00:36:56;;;;;;;26.60;23.80;;;;;;;;;;513510;28;2562;-84
2022/04/01 00:37:12;;;;;;;26.17;23.33;;;;;;;;;;513187;28;1350;-84
2022/04/01 00:37:28;;;;;;;26.38;22.92;;;;;;;;;;512812;28;1481;-84
2022/04/01 00:37:43;;;;;;;26.70;23.00;;;;;;;;;;513589;28;1413;-84
2022/04/01 00:37:58;;;;;;;26.35;23.33;;;;;;;;;;512639;28;1422;-85
2022/04/01 00:38:14;;;;;;;27.70;24.03;;;;;;;;;;511842;28;1311;-84
2022/04/01 00:38:29;;;;;;;27.23;23.25;;;;;;;;;;512802;28;1473;-85
2022/04/01 00:38:44;;;;;;;25.20;22.03;;;;;;;;;;513179;28;1484;-83
2022/04/01 00:39:00;;;;;;;25.13;22.10;;;;;;;;;;511302;28;1440;-86
2022/04/01 00:39:17;;;;;;;25.45;22.42;;;;;;;;;;511090;28;1406;-84
2022/04/01 00:39:33;;;;;;;25.92;23.10;;;;;;;;;;511401;28;1578;-84
2022/04/01 00:39:48;;;;;;;27.00;24.08;;;;;;;;;;511155;28;1545;-84
2022/04/01 00:40:04;;;;;;;27.87;24.60;;;;;;;;;;511772;28;1665;-84
2022/04/01 00:40:21;;;;;;;29.52;24.80;;;;;;;;;;510599;28;1724;-83
2022/04/01 00:40:38;;;;;;;29.15;24.50;;;;;;;;;;508957;29;1707;-84
2022/04/01 00:40:53;;;;;;;27.52;23.58;;;;;;;;;;510269;28;1616;-84
2022/04/01 00:41:09;;;;;;;27.27;23.10;;;;;;;;;;508986;28;1534;-85
2022/04/01 00:41:24;;;;;;;27.17;22.75;;;;;;;;;;509620;28;1538;-85
2022/04/01 00:41:41;;;;;;;25.57;22.13;;;;;;;;;;509370;29;1453;-84
2022/04/01 00:42:00;;;;;;;24.58;21.88;;;;;;;;;;508676;28;1414;-84
2022/04/01 00:42:16;;;;;;;24.50;21.85;;;;;;;;;;506492;29;1359;-85
2022/04/01 00:42:31;;;;;;;25.02;22.33;;;;;;;;;;509248;28;1468;-85
2022/04/01 00:42:47;;;;;;;25.03;22.23;;;;;;;;;;511039;28;1441;-84
2022/04/01 00:43:02;;;;;;;24.08;21.48;;;;;;;;;;512565;28;1582;-84
2022/04/01 00:43:32;;;;;;;24.53;21.10;;;;;;;;;;512843;28;1498;-84
2022/04/01 00:44:10;;;;;;;23.42;20.92;;;;;;;;;;510989;28;1611;-84
2022/04/01 00:44:29;;;;;;;24.50;21.83;;;;;;;;;;511402;28;1680;-84
2022/04/01 00:44:45;;;;;;;25.45;22.15;;;;;;;;;;510919;28;1473;-84
2022/04/01 00:45:00;;;;;;;28.00;23.07;;;;;;;;;;510904;28;1581;-84
2022/04/01 00:45:16;;;;;;;28.08;23.40;;;;;;;;;;509746;29;1303;-84
2022/04/01 00:45:31;;;;;;;26.27;23.07;;;;;;;;;;507411;29;1646;-85
2022/04/01 00:45:47;;;;;;;26.55;23.27;;;;;;;;;;509199;29;1612;-84
2022/04/01 00:46:02;;;;;;;26.97;23.40;;;;;;;;;;509673;29;1750;-84
2022/04/01 00:46:18;;;;;;;26.73;23.20;;;;;;;;;;509501;29;1506;-84
2022/04/01 00:46:34;;;;;;;27.10;22.97;;;;;;;;;;511615;28;1375;-84
2022/04/01 00:47:03;;;;;;;26.52;22.70;;;;;;;;;;508695;29;1477;-85
2022/04/01 00:47:19;;;;;;;26.35;23.30;;;;;;;;;;508992;29;1557;-84
2022/04/01 00:47:34;;;;;;;25.60;22.77;;;;;;;;;;507197;29;1446;-84
2022/04/01 00:47:50;;;;;;;25.63;22.53;;;;;;;;;;509046;29;1378;-85
2022/04/01 00:48:05;;;;;;;26.45;23.05;;;;;;;;;;506740;29;1580;-84
2022/04/01 00:48:21;;;;;;;25.73;22.77;;;;;;;;;;508838;29;1382;-84
2022/04/01 00:48:36;;;;;;;25.63;22.73;;;;;;;;;;508319;29;1581;-85
2022/04/01 00:48:51;;;;;;;26.45;22.85;;;;;;;;;;511294;28;1358;-85
2022/04/01 00:49:07;;;;;;;25.83;22.20;;;;;;;;;;511108;28;1723;-84
2022/04/01 00:49:24;;;;;;;25.37;22.30;;;;;;;;;;511318;28;1900;-84
2022/04/01 00:49:42;;;;;;;25.25;22.45;;;;;;;;;;513542;28;1514;-84
2022/04/01 00:49:58;;;;;;;27.80;23.52;;;;;;;;;;514124;28;1394;-84
2022/04/01 00:50:13;;;;;;;29.00;24.43;;;;;;;;;;512345;28;1416;-85
2022/04/01 00:50:32;;;;;;;27.83;24.15;;;;;;;;;;510797;28;1701;-86
2022/04/01 00:50:48;;;;;;;26.98;23.48;;;;;;;;;;508595;29;1443;-84
2022/04/01 00:51:03;;;;;;;26.65;22.92;;;;;;;;;;506516;29;1510;-84
2022/04/01 00:51:19;;;;;;;26.47;22.87;;;;;;;;;;506971;29;1519;-84
2022/04/01 00:51:35;;;;;;;26.30;23.33;;;;;;;;;;504672;29;1416;-84
2022/04/01 00:51:53;;;;;;;25.95;23.15;;;;;;;;;;507550;29;1453;-86
2022/04/01 00:52:12;;;;;;;25.40;22.67;;;;;;;;;;508886;29;1687;-84
2022/04/01 00:52:27;;;;;;;25.67;22.98;;;;;;;;;;511284;28;1458;-84
2022/04/01 00:52:44;;;;;;;25.53;22.77;;;;;;;;;;510322;28;1505;-86
2022/04/01 00:53:00;;;;;;;25.75;22.73;;;;;;;;;;509219;28;1528;-84
2022/04/01 00:53:20;;;;;;;25.58;22.80;;;;;;;;;;509631;29;1963;-84
2022/04/01 00:53:36;;;;;;;24.65;21.95;;;;;;;;;;510834;28;1457;-84
2022/04/01 00:53:53;;;;;;;25.15;22.45;;;;;;;;;;509815;28;2029;-84
2022/04/01 00:54:10;;;;;;;25.98;23.20;;;;;;;;;;512548;28;1575;-85
2022/04/01 00:54:26;;;;;;;25.42;22.73;;;;;;;;;;513646;28;1457;-84
2022/04/01 00:54:42;;;;;;;25.50;22.73;;;;;;;;;;512488;28;1835;-84
2022/04/01 00:54:59;;;;;;;25.65;22.85;;;;;;;;;;511121;28;1668;-85
2022/04/01 00:55:15;;;;;;;24.42;21.92;;;;;;;;;;510581;28;1382;-84
2022/04/01 00:55:30;;;;;;;25.17;22.37;;;;;;;;;;509367;29;1437;-85
2022/04/01 00:55:46;;;;;;;25.33;22.40;;;;;;;;;;509856;29;1465;-84
2022/04/01 00:56:02;;;;;;;24.20;21.65;;;;;;;;;;508468;29;1616;-85
2022/04/01 00:56:17;;;;;;;24.47;21.87;;;;;;;;;;506845;29;1400;-84
2022/04/01 00:56:36;;;;;;;24.70;22.00;;;;;;;;;;508996;29;1739;-85
2022/04/01 00:56:51;;;;;;;24.65;21.95;;;;;;;;;;509034;29;1458;-84
2022/04/01 00:57:08;;;;;;;24.37;21.77;;;;;;;;;;507653;29;1446;-85
2022/04/01 00:57:25;;;;;;;24.67;21.98;;;;;;;;;;508093;29;1302;-84
2022/04/01 00:57:41;;;;;;;25.00;22.25;;;;;;;;;;508971;29;1549;-84
2022/04/01 00:57:56;;;;;;;24.90;22.20;;;;;;;;;;509856;28;1379;-85
2022/04/01 00:58:12;;;;;;;24.73;22.13;;;;;;;;;;511919;28;1472;-85
2022/04/01 00:58:28;;;;;;;24.63;22.00;;;;;;;;;;514633;28;1553;-86
2022/04/01 00:58:43;;;;;;;24.60;22.00;;;;;;;;;;516008;28;1401;-84
2022/04/01 00:58:59;;;;;;;25.58;22.83;;;;;;;;;;513433;28;1474;-84
2022/04/01 00:59:15;;;;;;;25.90;23.10;;;;;;;;;;515549;28;1711;-84
2022/04/01 00:59:32;;;;;;;25.83;23.02;;;;;;;;;;512507;28;1442;-84
2022/04/01 00:59:48;;;;;;;25.92;22.90;;;;;;;;;;512633;28;1586;-84
2022/04/01 01:00:06;;;;;;;25.17;22.42;;;;;;;;;;512926;28;1790;-84
2022/04/01 01:00:25;;;;;;;24.88;22.20;;;;;;;;;;513212;28;1488;-84
2022/04/01 01:00:40;;;;;;;24.88;22.25;;;;;;;;;;513218;28;1492;-84
2022/04/01 01:00:56;;;;;;;25.08;22.48;;;;;;;;;;513338;28;1581;-84
2022/04/01 01:01:11;;;;;;;24.90;22.40;;;;;;;;;;513624;28;1453;-84
2022/04/01 01:01:26;;;;;;;24.77;22.27;;;;;;;;;;511483;28;1405;-85
2022/04/01 01:01:47;;;;;;;24.70;22.10;;;;;;;;;;510733;28;1669;-84
2022/04/01 01:02:03;;;;;;;25.13;22.42;;;;;;;;;;509684;29;1446;-84
2022/04/01 01:02:18;;;;;;;26.27;23.48;;;;;;;;;;506731;29;1797;-84
2022/04/01 01:02:34;;;;;;;26.53;23.73;;;;;;;;;;506778;29;1595;-84
2022/04/01 01:02:49;;;;;;;26.52;23.73;;;;;;;;;;508636;29;2037;-84
2022/04/01 01:03:05;;;;;;;26.43;23.57;;;;;;;;;;510134;28;1414;-84
2022/04/01 01:03:20;;;;;;;25.88;23.08;;;;;;;;;;512422;28;1581;-84
2022/04/01 01:03:36;;;;;;;24.93;22.33;;;;;;;;;;511283;28;1509;-84
2022/04/01 01:03:52;;;;;;;24.17;21.65;;;;;;;;;;511554;28;1703;-84
2022/04/01 01:04:08;;;;;;;23.52;21.02;;;;;;;;;;510665;28;1464;-84
2022/04/01 01:04:24;;;;;;;23.60;21.10;;;;;;;;;;506938;29;1502;-84
2022/04/01 01:04:41;;;;;;;24.75;22.20;;;;;;;;;;505055;29;1545;-84
2022/04/01 01:04:56;;;;;;;24.58;21.98;;;;;;;;;;507132;29;1450;-85
2022/04/01 01:05:12;;;;;;;24.17;21.67;;;;;;;;;;508520;29;1583;-84
2022/04/01 01:05:27;;;;;;;23.80;21.40;;;;;;;;;;509414;29;1491;-83
2022/04/01 01:05:42;;;;;;;24.08;21.63;;;;;;;;;;508992;29;1723;-85
2022/04/01 01:05:58;;;;;;;24.20;21.60;;;;;;;;;;507073;29;1411;-85
2022/04/01 01:06:14;;;;;;;25.53;21.50;;;;;;;;;;508451;29;1720;-84
2022/04/01 01:06:31;;;;;;;25.33;21.77;;;;;;;;;;509591;29;1285;-84
2022/04/01 01:06:52;;;;;;;23.98;21.40;;;;;;;;;;511695;28;1475;-84
2022/04/01 01:07:08;;;;;;;24.52;21.88;;;;;;;;;;512210;28;1607;-84
2022/04/01 01:07:23;;;;;;;24.55;21.95;;;;;;;;;;511006;28;1456;-84
2022/04/01 01:07:42;;;;;;;25.47;22.77;;;;;;;;;;510612;28;1549;-84
2022/04/01 01:07:59;;;;;;;25.70;22.90;;;;;;;;;;511013;28;1444;-85
2022/04/01 01:08:15;;;;;;;24.85;22.15;;;;;;;;;;508700;29;1435;-85
2022/04/01 01:08:30;;;;;;;24.55;21.20;;;;;;;;;;509388;29;1916;-84
2022/04/01 01:08:47;;;;;;;23.40;20.70;;;;;;;;;;507319;29;1565;-84
2022/04/01 01:09:04;;;;;;;23.20;20.75;;;;;;;;;;508338;29;1521;-84
2022/04/01 01:09:22;;;;;;;23.63;21.10;;;;;;;;;;510352;28;1811;-84
2022/04/01 01:09:37;;;;;;;24.48;21.77;;;;;;;;;;510675;28;1516;-84
2022/04/01 01:09:53;;;;;;;25.27;22.60;;;;;;;;;;511591;28;1418;-84
2022/04/01 01:10:14;;;;;;;25.25;22.58;;;;;;;;;;511594;28;1597;-84
2022/04/01 01:10:31;;;;;;;24.48;21.98;;;;;;;;;;511441;28;1392;-84
2022/04/01 01:10:46;;;;;;;24.70;22.08;;;;;;;;;;511396;28;1264;-84
2022/04/01 01:11:02;;;;;;;25.03;22.33;;;;;;;;;;511634;28;1434;-85
2022/04/01 01:11:17;;;;;;;24.67;22.02;;;;;;;;;;511169;28;1453;-85
2022/04/01 01:11:35;;;;;;;24.45;21.85;;;;;;;;;;510616;28;1403;-85
2022/04/01 01:11:52;;;;;;;24.75;22.02;;;;;;;;;;510773;28;1390;-85
2022/04/01 01:12:07;;;;;;;24.50;21.80;;;;;;;;;;509220;29;1446;-86
2022/04/01 01:12:25;;;;;;;24.27;21.77;;;;;;;;;;508996;29;1630;-85
2022/04/01 01:12:41;;;;;;;24.48;21.88;;;;;;;;;;506935;29;1426;-84
2022/04/01 01:12:56;;;;;;;24.52;21.92;;;;;;;;;;507593;29;1485;-83
2022/04/01 01:13:12;;;;;;;24.25;21.83;;;;;;;;;;508561;29;1907;-85
2022/04/01 01:13:29;;;;;;;24.57;21.97;;;;;;;;;;510667;28;1418;-86
2022/04/01 01:13:45;;;;;;;24.88;22.17;;;;;;;;;;508837;29;1638;-84
2022/04/01 01:14:05;;;;;;;25.25;22.33;;;;;;;;;;507626;29;1523;-85
2022/04/01 01:14:31;;;;;;;24.77;22.08;;;;;;;;;;504868;29;1505;-84
2022/04/01 01:14:46;;;;;;;26.23;23.42;;;;;;;;;;506247;29;1511;-84
2022/04/01 01:15:10;;;;;;;26.00;23.20;;;;;;;;;;506754;29;1471;-84
2022/04/01 01:15:25;;;;;;;25.05;22.55;;;;;;;;;;507915;29;1477;-84
2022/04/01 01:15:42;;;;;;;25.58;22.98;;;;;;;;;;508043;29;1467;-84
2022/04/01 01:15:57;;;;;;;25.05;22.45;;;;;;;;;;510736;28;1322;-85
2022/04/01 01:16:13;;;;;;;24.50;21.90;;;;;;;;;;511449;28;1725;-84
2022/04/01 01:16:29;;;;;;;25.08;22.38;;;;;;;;;;510619;28;1547;-84
2022/04/01 01:16:45;;;;;;;25.33;22.63;;;;;;;;;;512568;28;1653;-85
2022/04/01 01:17:03;;;;;;;25.50;22.83;;;;;;;;;;514254;28;1468;-84
2022/04/01 01:17:18;;;;;;;25.75;23.08;;;;;;;;;;512481;28;1464;-85
2022/04/01 01:17:34;;;;;;;25.57;22.97;;;;;;;;;;512754;28;1617;-84
2022/04/01 01:17:49;;;;;;;25.13;22.43;;;;;;;;;;512907;28;1519;-86
2022/04/01 01:18:05;;;;;;;24.90;22.20;;;;;;;;;;510768;28;1683;-84
2022/04/01 01:18:21;;;;;;;24.95;22.35;;;;;;;;;;508897;29;1458;-86
2022/04/01 01:18:36;;;;;;;24.67;21.98;;;;;;;;;;507622;29;1419;-84
2022/04/01 01:19:03;;;;;;;24.53;21.93;;;;;;;;;;508097;29;1513;-84
2022/04/01 01:19:20;;;;;;;25.08;22.38;;;;;;;;;;508604;29;1498;-84
2022/04/01 01:19:35;;;;;;;24.77;22.17;;;;;;;;;;508535;28;1496;-85
2022/04/01 01:19:51;;;;;;;24.30;21.80;;;;;;;;;;508469;28;1558;-85
2022/04/01 01:20:12;;;;;;;25.20;22.50;;;;;;;;;;510871;28;1520;-84
2022/04/01 01:20:28;;;;;;;25.52;22.17;;;;;;;;;;511616;28;1567;-84
2022/04/01 01:20:44;;;;;;;24.23;21.63;;;;;;;;;;510887;28;1501;-84
2022/04/01 01:20:59;;;;;;;24.17;21.65;;;;;;;;;;509572;29;1514;-83
2022/04/01 01:21:15;;;;;;;24.53;22.00;;;;;;;;;;509395;29;1493;-86
2022/04/01 01:21:31;;;;;;;24.63;22.02;;;;;;;;;;507975;29;1376;-85
2022/04/01 01:21:50;;;;;;;24.83;22.13;;;;;;;;;;509224;29;1645;-84
2022/04/01 01:22:06;;;;;;;24.65;22.10;;;;;;;;;;506651;29;1617;-84
2022/04/01 01:22:21;;;;;;;25.73;23.00;;;;;;;;;;507688;29;1500;-85
2022/04/01 01:22:37;;;;;;;25.57;22.87;;;;;;;;;;508147;29;1609;-84
2022/04/01 01:22:53;;;;;;;24.85;22.25;;;;;;;;;;507888;29;1549;-85
2022/04/01 01:23:12;;;;;;;25.13;22.52;;;;;;;;;;509005;29;1453;-84
2022/04/01 01:23:31;;;;;;;24.80;22.30;;;;;;;;;;507259;29;1549;-85
2022/04/01 01:23:47;;;;;;;24.17;21.75;;;;;;;;;;509229;29;1374;-83
2022/04/01 01:24:08;;;;;;;23.50;21.10;;;;;;;;;;510419;28;1447;-84
2022/04/01 01:24:35;;;;;;;23.65;21.25;;;;;;;;;;509508;29;1454;-84
2022/04/01 01:24:51;;;;;;;23.63;21.20;;;;;;;;;;510502;28;1601;-85
2022/04/01 01:25:11;;;;;;;23.58;21.17;;;;;;;;;;511660;28;1502;-85
2022/04/01 01:25:27;;;;;;;23.42;20.92;;;;;;;;;;512872;28;1425;-84
2022/04/01 01:25:43;;;;;;;23.70;21.20;;;;;;;;;;512254;28;1509;-84
2022/04/01 01:25:58;;;;;;;24.13;21.58;;;;;;;;;;513949;28;1477;-84
2022/04/01 01:26:13;;;;;;;23.40;21.00;;;;;;;;;;513215;28;1633;-84
2022/04/01 01:26:30;;;;;;;23.20;20.80;;;;;;;;;;513663;28;1439;-84
2022/04/01 01:26:51;;;;;;;23.90;21.33;;;;;;;;;;510887;28;1386;-84
2022/04/01 01:27:08;;;;;;;23.95;21.45;;;;;;;;;;510813;28;1762;-85
2022/04/01 01:27:24;;;;;;;24.45;21.95;;;;;;;;;;510885;28;1574;-86
2022/04/01 01:27:40;;;;;;;24.67;22.07;;;;;;;;;;510756;28;1548;-84
2022/04/01 01:27:55;;;;;;;24.58;22.02;;;;;;;;;;508855;29;1466;-84
2022/04/01 01:28:11;;;;;;;23.90;21.50;;;;;;;;;;510188;28;1616;-84
2022/04/01 01:28:27;;;;;;;23.35;20.95;;;;;;;;;;510382;28;1415;-84
2022/04/01 01:28:43;;;;;;;22.88;20.50;;;;;;;;;;512661;28;1445;-85
2022/04/01 01:28:59;;;;;;;22.57;20.27;;;;;;;;;;510947;28;1468;-84
2022/04/01 01:29:22;;;;;;;23.15;20.75;;;;;;;;;;511291;28;1452;-84
2022/04/01 01:29:39;;;;;;;22.63;20.33;;;;;;;;;;513280;28;1364;-84
2022/04/01 01:29:55;;;;;;;23.33;20.92;;;;;;;;;;511301;28;1512;-84
2022/04/01 01:30:11;;;;;;;23.50;21.10;;;;;;;;;;509326;29;1448;-85
2022/04/01 01:30:26;;;;;;;23.35;20.85;;;;;;;;;;509725;29;1549;-84
2022/04/01 01:30:42;;;;;;;23.83;21.33;;;;;;;;;;509179;29;1481;-84
2022/04/01 01:30:57;;;;;;;23.80;21.30;;;;;;;;;;509080;29;1590;-84
2022/04/01 01:31:13;;;;;;;22.92;20.58;;;;;;;;;;509721;29;1476;-84
2022/04/01 01:31:28;;;;;;;22.57;20.23;;;;;;;;;;509202;29;1686;-86
2022/04/01 01:31:43;;;;;;;23.33;20.87;;;;;;;;;;509175;28;1469;-85
2022/04/01 01:32:01;;;;;;;24.27;21.77;;;;;;;;;;511254;28;1724;-84
2022/04/01 01:32:19;;;;;;;23.85;21.45;;;;;;;;;;511040;28;1429;-84
2022/04/01 01:32:35;;;;;;;23.92;21.52;;;;;;;;;;511123;28;1647;-84
2022/04/01 01:32:50;;;;;;;23.83;21.33;;;;;;;;;;510638;28;1452;-84
2022/04/01 01:33:06;;;;;;;23.93;21.43;;;;;;;;;;509351;28;1450;-84
2022/04/01 01:33:25;;;;;;;23.77;21.37;;;;;;;;;;509376;29;1911;-84
2022/04/01 01:33:43;;;;;;;22.77;20.45;;;;;;;;;;510637;28;1552;-85
2022/04/01 01:33:59;;;;;;;23.73;21.27;;;;;;;;;;512064;28;1336;-84
2022/04/01 01:34:16;;;;;;;24.23;21.73;;;;;;;;;;511077;28;1667;-85
2022/04/01 01:34:33;;;;;;;24.52;21.92;;;;;;;;;;509170;29;1438;-84
2022/04/01 01:34:49;;;;;;;24.67;22.08;;;;;;;;;;509805;29;1422;-84
2022/04/01 01:35:06;;;;;;;24.73;22.13;;;;;;;;;;509559;29;1748;-85
2022/04/01 01:35:22;;;;;;;25.27;22.60;;;;;;;;;;506665;29;1479;-84
2022/04/01 01:35:37;;;;;;;25.77;23.07;;;;;;;;;;507930;29;1490;-84
2022/04/01 01:35:53;;;;;;;25.30;22.60;;;;;;;;;;505446;29;1476;-85
2022/04/01 01:36:10;;;;;;;25.00;22.40;;;;;;;;;;506784;29;2535;-84
2022/04/01 01:36:27;;;;;;;24.95;22.35;;;;;;;;;;508471;29;1498;-84
2022/04/01 01:36:43;;;;;;;24.65;22.05;;;;;;;;;;508892;29;1565;-84
2022/04/01 01:37:00;;;;;;;24.13;21.63;;;;;;;;;;507892;29;1451;-85
2022/04/01 01:37:15;;;;;;;23.52;21.15;;;;;;;;;;510295;28;1453;-84
2022/04/01 01:37:31;;;;;;;23.67;21.27;;;;;;;;;;510487;28;1532;-84
2022/04/01 01:37:46;;;;;;;23.83;21.35;;;;;;;;;;512296;28;1649;-84
2022/04/01 01:38:02;;;;;;;23.33;20.93;;;;;;;;;;512872;28;1505;-84
2022/04/01 01:38:18;;;;;;;23.40;21.05;;;;;;;;;;513203;28;1426;-84
2022/04/01 01:38:33;;;;;;;23.52;21.13;;;;;;;;;;510583;28;1587;-84